createdAt,value
2022-08-31T00:00:14.199Z,10.10
2022-08-31T00:02:59.367Z,10.35
2022-08-31T00:05:26.300Z,9.55
2022-08-31T00:07:53.084Z,7.93
2022-08-31T00:10:32.512Z,8.18
2022-08-31T00:13:04.990Z,8.98
2022-08-31T00:15:34.902Z,10.77
2022-08-31T00:18:01.850Z,8.93
2022-08-31T00:20:33.875Z,7.68
2022-08-31T00:23:03.338Z,7.88
2022-08-31T00:25:31.009Z,9.25
2022-08-31T00:27:57.820Z,6.72
2022-08-31T00:30:24.901Z,6.65
2022-08-31T00:32:52.275Z,11.90
2022-08-31T00:35:19.046Z,8.25
2022-08-31T00:37:45.700Z,9.50
2022-08-31T00:40:13.267Z,9.35
2022-08-31T00:42:40.461Z,11.98
2022-08-31T00:45:08.719Z,8.65
2022-08-31T00:47:36.004Z,10.05
2022-08-31T00:50:08.628Z,11.38
2022-08-31T00:52:38.786Z,8.27
2022-08-31T00:55:13.878Z,7.90
2022-08-31T00:57:44.781Z,8.00
2022-08-31T01:00:20.207Z,8.68
2022-08-31T01:02:48.139Z,7.57
2022-08-31T01:05:16.283Z,8.65
2022-08-31T01:07:47.627Z,8.07
2022-08-31T01:10:16.918Z,8.40
2022-08-31T01:12:45.874Z,11.43
2022-08-31T01:15:14.571Z,8.35
2022-08-31T01:17:43.500Z,7.43
2022-08-31T01:20:33.292Z,7.47
2022-08-31T01:23:05.887Z,7.72
2022-08-31T01:25:35.954Z,8.07
2022-08-31T01:28:06.409Z,9.63
2022-08-31T01:30:33.965Z,9.88
2022-08-31T01:33:00.632Z,8.68
2022-08-31T01:35:28.752Z,8.43
2022-08-31T01:37:56.851Z,8.57
2022-08-31T01:40:44.365Z,9.15
2022-08-31T01:43:11.178Z,8.27
2022-08-31T01:45:38.144Z,10.60
2022-08-31T01:48:05.030Z,8.80
2022-08-31T01:50:31.802Z,9.95
2022-08-31T01:52:59.181Z,7.90
2022-08-31T01:55:25.807Z,7.57
2022-08-31T01:57:52.489Z,9.10
2022-08-31T02:00:38.374Z,10.48
2022-08-31T02:03:07.881Z,10.75
2022-08-31T02:05:36.850Z,11.02
2022-08-31T02:08:07.449Z,6.25
2022-08-31T02:10:34.802Z,11.40
2022-08-31T02:13:01.440Z,9.82
2022-08-31T02:15:32.028Z,8.43
2022-08-31T02:17:59.809Z,10.13
2022-08-31T02:20:26.533Z,8.40
2022-08-31T02:22:53.209Z,11.85
2022-08-31T02:25:20.089Z,8.95
2022-08-31T02:27:46.902Z,8.55
2022-08-31T02:30:16.839Z,9.57
2022-08-31T02:32:43.769Z,10.68
2022-08-31T02:35:11.169Z,10.13
2022-08-31T02:37:38.030Z,9.45
2022-08-31T02:40:12.014Z,7.07
2022-08-31T02:42:52.454Z,9.85
2022-08-31T02:45:23.458Z,6.45
2022-08-31T02:47:50.488Z,9.95
2022-08-31T02:50:43.176Z,10.77
2022-08-31T02:53:11.902Z,8.07
2022-08-31T02:55:39.404Z,7.22
2022-08-31T02:58:06.514Z,11.40
2022-08-31T03:00:33.354Z,9.38
2022-08-31T03:03:00.193Z,11.20
2022-08-31T03:05:28.535Z,8.07
2022-08-31T03:07:57.107Z,9.45
2022-08-31T03:10:25.570Z,10.75
2022-08-31T03:12:53.762Z,7.53
2022-08-31T03:15:22.996Z,9.07
2022-08-31T03:17:49.672Z,9.38
2022-08-31T03:20:20.897Z,8.45
2022-08-31T03:22:47.578Z,11.80
2022-08-31T03:25:17.553Z,8.93
2022-08-31T03:27:45.453Z,9.45
2022-08-31T03:30:16.475Z,9.65
2022-08-31T03:32:48.471Z,8.68
2022-08-31T03:35:17.965Z,8.65
2022-08-31T03:37:45.606Z,11.50
2022-08-31T03:40:12.680Z,9.75
2022-08-31T03:42:40.576Z,11.05
2022-08-31T03:45:11.231Z,8.60
2022-08-31T03:47:42.770Z,9.40
2022-08-31T03:50:12.778Z,11.18
2022-08-31T03:52:54.089Z,8.70
2022-08-31T03:55:21.775Z,9.65
2022-08-31T03:57:50.301Z,8.75
2022-08-31T04:00:17.811Z,10.43
2022-08-31T04:02:52.862Z,9.98
2022-08-31T04:05:36.715Z,8.93
2022-08-31T04:08:13.254Z,9.07
2022-08-31T04:10:44.320Z,9.07
2022-08-31T04:13:30.308Z,10.80
2022-08-31T04:16:29.503Z,11.15
2022-08-31T04:19:31.988Z,7.70
2022-08-31T04:22:09.049Z,7.93
2022-08-31T04:24:40.103Z,8.85
2022-08-31T04:27:06.783Z,11.77
2022-08-31T04:29:33.380Z,8.02
2022-08-31T04:32:00.175Z,9.02
2022-08-31T04:34:26.896Z,8.13
2022-08-31T04:36:53.980Z,10.60
2022-08-31T04:39:21.052Z,8.70
2022-08-31T04:41:51.081Z,9.35
2022-08-31T04:44:20.185Z,14.30
2022-08-31T04:46:52.705Z,9.75
2022-08-31T04:49:19.575Z,6.75
2022-08-31T04:51:46.249Z,10.77
2022-08-31T04:54:14.039Z,9.32
2022-08-31T04:56:44.639Z,8.50
2022-08-31T04:59:16.053Z,9.65
2022-08-31T05:02:01.428Z,10.27
2022-08-31T05:04:41.341Z,10.07
2022-08-31T05:07:08.148Z,9.20
2022-08-31T05:09:35.953Z,7.30
2022-08-31T05:12:02.997Z,8.52
2022-08-31T05:14:29.823Z,7.93
2022-08-31T05:17:06.276Z,7.22
2022-08-31T05:19:41.229Z,8.80
2022-08-31T05:22:08.100Z,9.25
2022-08-31T05:24:38.818Z,9.63
2022-08-31T05:27:05.932Z,9.88
2022-08-31T05:29:32.989Z,8.63
2022-08-31T05:32:25.515Z,6.68
2022-08-31T05:34:53.259Z,9.25
2022-08-31T05:37:20.302Z,6.32
2022-08-31T05:39:51.059Z,10.98
2022-08-31T05:42:19.886Z,7.78
2022-08-31T05:44:47.696Z,8.45
2022-08-31T05:47:15.676Z,12.80
2022-08-31T05:49:43.701Z,8.65
2022-08-31T05:52:13.931Z,10.15
2022-08-31T05:54:41.211Z,11.63
2022-08-31T05:57:08.720Z,11.48
2022-08-31T05:59:38.252Z,10.00
2022-08-31T06:02:05.877Z,12.30
2022-08-31T06:04:33.536Z,9.75
2022-08-31T06:07:00.385Z,9.40
2022-08-31T06:09:34.073Z,10.07
2022-08-31T06:12:02.146Z,7.82
2022-08-31T06:14:29.436Z,8.48
2022-08-31T06:16:57.167Z,7.85
2022-08-31T06:19:24.116Z,7.50
2022-08-31T06:21:51.530Z,7.53
2022-08-31T06:24:24.151Z,8.10
2022-08-31T06:26:58.070Z,9.60
2022-08-31T06:29:34.116Z,8.10
2022-08-31T06:32:06.486Z,12.20
2022-08-31T06:34:34.681Z,8.20
2022-08-31T06:37:18.643Z,8.27
2022-08-31T06:40:04.846Z,10.48
2022-08-31T06:43:01.117Z,8.98
2022-08-31T06:45:57.758Z,10.57
2022-08-31T06:48:37.155Z,9.32
2022-08-31T06:51:05.076Z,9.00
2022-08-31T06:53:34.094Z,7.55
2022-08-31T06:56:26.517Z,9.70
2022-08-31T06:59:12.759Z,7.60
2022-08-31T07:01:55.792Z,8.90
2022-08-31T07:04:37.256Z,8.73
2022-08-31T07:07:06.157Z,6.53
2022-08-31T07:09:33.927Z,9.38
2022-08-31T07:12:00.857Z,9.45
2022-08-31T07:14:27.849Z,8.25
2022-08-31T07:16:57.983Z,9.95
2022-08-31T07:19:26.244Z,15.00
2022-08-31T07:21:56.326Z,7.03
2022-08-31T07:24:27.767Z,9.85
2022-08-31T07:27:00.156Z,13.75
2022-08-31T07:29:40.854Z,10.57
2022-08-31T07:32:13.635Z,7.28
2022-08-31T07:34:43.927Z,8.63
2022-08-31T07:37:35.625Z,8.75
2022-08-31T07:40:22.046Z,11.68
2022-08-31T07:42:49.096Z,11.27
2022-08-31T07:45:23.340Z,11.60
2022-08-31T07:47:56.118Z,12.40
2022-08-31T07:50:27.434Z,7.75
2022-08-31T07:53:22.468Z,7.75
2022-08-31T07:56:11.155Z,8.95
2022-08-31T07:58:42.769Z,11.82
2022-08-31T08:01:10.691Z,7.25
2022-08-31T08:03:41.054Z,8.00
2022-08-31T08:06:46.004Z,11.27
2022-08-31T08:09:29.925Z,10.25
2022-08-31T08:12:19.175Z,9.90
2022-08-31T08:15:08.948Z,10.68
2022-08-31T08:17:54.857Z,7.45
2022-08-31T08:20:37.189Z,11.07
2022-08-31T08:23:18.553Z,7.60
2022-08-31T08:26:21.388Z,10.55
2022-08-31T08:29:07.417Z,8.90
2022-08-31T08:31:38.982Z,7.18
2022-08-31T08:34:06.605Z,9.52
2022-08-31T08:36:36.492Z,6.40
2022-08-31T08:39:06.077Z,10.40
2022-08-31T08:41:36.564Z,10.65
2022-08-31T08:44:08.507Z,8.18
2022-08-31T08:46:43.991Z,8.85
2022-08-31T08:49:20.634Z,10.25
2022-08-31T08:51:53.495Z,7.63
2022-08-31T08:54:29.670Z,9.32
2022-08-31T08:56:57.937Z,6.97
2022-08-31T08:59:24.741Z,9.10
2022-08-31T09:01:56.563Z,8.18
2022-08-31T09:04:54.434Z,8.35
2022-08-31T09:07:38.888Z,8.88
2022-08-31T09:10:19.707Z,9.80
2022-08-31T09:12:58.569Z,6.97
2022-08-31T09:15:37.659Z,8.80
2022-08-31T09:18:11.154Z,9.05
2022-08-31T09:20:38.059Z,9.40
2022-08-31T09:23:08.275Z,10.35
2022-08-31T09:25:52.199Z,8.90
2022-08-31T09:28:47.324Z,7.78
2022-08-31T09:31:43.661Z,8.73
2022-08-31T09:34:28.499Z,8.55
2022-08-31T09:37:16.493Z,8.68
2022-08-31T09:39:47.846Z,6.97
2022-08-31T09:42:20.332Z,11.82
2022-08-31T09:44:50.999Z,7.80
2022-08-31T09:47:48.829Z,6.65
2022-08-31T09:50:45.193Z,6.28
2022-08-31T09:53:42.092Z,9.80
2022-08-31T09:56:21.028Z,9.05
2022-08-31T09:58:57.243Z,9.93
2022-08-31T10:01:38.703Z,10.82
2022-08-31T10:04:17.276Z,6.25
2022-08-31T10:07:29.159Z,7.80
2022-08-31T10:10:08.361Z,6.88
2022-08-31T10:13:03.795Z,5.07
2022-08-31T10:15:39.523Z,9.73
2022-08-31T10:18:14.186Z,7.22
2022-08-31T10:20:48.379Z,7.20
2022-08-31T10:23:27.351Z,8.82
2022-08-31T10:26:01.131Z,5.95
2022-08-31T10:28:32.179Z,6.72
2022-08-31T10:34:20.468Z,7.15
2022-08-31T10:36:52.246Z,6.57
2022-08-31T10:39:40.037Z,7.30
2022-08-31T10:42:12.278Z,6.90
2022-08-31T10:44:56.247Z,7.50
2022-08-31T10:47:33.609Z,7.78
2022-08-31T10:50:05.330Z,9.50
2022-08-31T10:55:23.898Z,5.90
2022-08-31T10:58:32.414Z,9.32
2022-08-31T11:01:21.203Z,7.07
2022-08-31T11:04:09.730Z,9.80
2022-08-31T11:06:43.850Z,6.07
2022-08-31T11:09:21.433Z,6.88
2022-08-31T11:11:59.987Z,10.10
2022-08-31T11:15:03.542Z,10.80
2022-08-31T11:17:45.988Z,6.70
2022-08-31T11:20:40.186Z,8.25
2022-08-31T11:23:26.918Z,10.32
2022-08-31T11:26:12.572Z,7.47
2022-08-31T11:29:18.846Z,7.57
2022-08-31T11:31:46.346Z,8.30
2022-08-31T11:34:26.961Z,6.97
2022-08-31T11:37:01.028Z,7.70
2022-08-31T11:39:31.132Z,10.65
2022-08-31T11:41:59.211Z,8.73
2022-08-31T11:44:36.973Z,8.88
2022-08-31T11:47:07.345Z,9.27
2022-08-31T11:49:39.067Z,12.32
2022-08-31T11:52:12.571Z,13.68
2022-08-31T11:54:42.186Z,9.73
2022-08-31T11:57:15.890Z,11.15
2022-08-31T11:59:48.035Z,9.05
2022-08-31T12:02:23.635Z,10.18
2022-08-31T12:04:53.422Z,8.70
2022-08-31T12:07:28.479Z,11.05
2022-08-31T12:09:55.036Z,9.60
2022-08-31T12:12:36.538Z,12.13
2022-08-31T12:15:16.207Z,10.18
2022-08-31T12:17:57.343Z,5.30
2022-08-31T12:23:30.756Z,6.13
2022-08-31T12:26:01.435Z,5.25
2022-08-31T12:28:30.721Z,4.35
2022-08-31T12:31:04.272Z,3.30
2022-08-31T12:33:32.844Z,4.38
2022-08-31T12:36:18.633Z,4.85
2022-08-31T12:38:46.210Z,5.30
2022-08-31T12:41:14.384Z,4.75
2022-08-31T12:43:49.223Z,5.68
2022-08-31T12:46:34.408Z,5.82
2022-08-31T12:49:35.525Z,4.85
2022-08-31T12:52:02.255Z,2.30
2022-08-31T12:54:52.653Z,2.45
2022-08-31T12:57:51.131Z,2.72
2022-08-31T13:00:26.222Z,3.75
2022-08-31T13:03:00.334Z,2.58
2022-08-31T13:05:33.539Z,3.13
2022-08-31T13:08:00.615Z,2.65
2022-08-31T13:10:37.518Z,3.50
2022-08-31T13:13:08.286Z,3.88
2022-08-31T13:15:39.737Z,2.28
2022-08-31T13:18:21.566Z,3.03
2022-08-31T13:20:52.991Z,3.17
2022-08-31T13:23:34.761Z,2.10
2022-08-31T13:26:05.968Z,1.98
2022-08-31T13:28:35.338Z,3.03
2022-08-31T13:31:05.896Z,4.28
2022-08-31T13:33:35.565Z,3.10
2022-08-31T13:36:31.666Z,3.25
2022-08-31T13:39:03.220Z,3.53
2022-08-31T13:41:41.456Z,4.13
2022-08-31T13:44:13.045Z,3.60
2022-08-31T13:46:44.306Z,3.47
2022-08-31T13:49:29.685Z,4.95
2022-08-31T13:51:57.045Z,3.45
2022-08-31T13:54:31.448Z,4.32
2022-08-31T13:57:19.704Z,4.68
2022-08-31T13:59:47.664Z,3.10
2022-08-31T14:02:19.488Z,3.17
2022-08-31T14:05:03.577Z,4.18
2022-08-31T14:07:39.415Z,3.05
2022-08-31T14:10:21.377Z,4.80
2022-08-31T14:12:57.048Z,3.42
2022-08-31T14:15:54.459Z,2.00
2022-08-31T14:18:27.466Z,3.33
2022-08-31T14:21:20.594Z,3.35
2022-08-31T14:24:01.823Z,2.80
2022-08-31T14:26:32.224Z,3.60
2022-08-31T14:29:02.168Z,2.55
2022-08-31T14:31:52.563Z,3.95
2022-08-31T14:34:30.412Z,2.53
2022-08-31T14:37:04.062Z,1.92
2022-08-31T14:39:42.777Z,3.43
2022-08-31T14:42:24.680Z,4.28
2022-08-31T14:45:00.429Z,2.30
2022-08-31T14:47:29.404Z,1.95
2022-08-31T14:50:05.298Z,2.33
2022-08-31T14:52:38.072Z,5.70
2022-08-31T14:55:09.004Z,2.58
2022-08-31T14:57:36.560Z,2.45
2022-08-31T15:00:06.503Z,3.10
2022-08-31T15:02:34.521Z,2.35
2022-08-31T15:05:04.762Z,2.70
2022-08-31T15:07:34.700Z,3.73
2022-08-31T15:10:01.799Z,3.55
2022-08-31T15:12:28.942Z,4.00
2022-08-31T15:14:58.870Z,4.50
2022-08-31T15:17:31.398Z,4.95
2022-08-31T15:19:58.138Z,4.75
2022-08-31T15:22:26.601Z,3.08
2022-08-31T15:24:54.711Z,5.75
2022-08-31T15:27:22.530Z,7.72
2022-08-31T15:29:53.773Z,6.38
2022-08-31T15:34:57.480Z,5.95
2022-08-31T15:37:27.303Z,6.85
2022-08-31T15:39:59.905Z,7.07
2022-08-31T15:42:26.808Z,8.13
2022-08-31T15:44:56.776Z,6.55
2022-08-31T15:47:45.755Z,4.82
2022-08-31T15:50:19.307Z,7.28
2022-08-31T15:52:51.891Z,7.15
2022-08-31T15:55:23.554Z,6.75
2022-08-31T15:57:54.039Z,7.47
2022-08-31T16:00:23.448Z,8.52
2022-08-31T16:02:57.362Z,7.45
2022-08-31T16:05:34.914Z,9.75
2022-08-31T16:08:02.227Z,8.95
2022-08-31T16:10:30.958Z,8.70
2022-08-31T16:12:57.891Z,7.07
2022-08-31T16:15:25.385Z,10.70
2022-08-31T16:17:57.875Z,5.68
2022-08-31T16:20:27.604Z,6.88
2022-08-31T16:22:54.939Z,9.10
2022-08-31T16:25:21.722Z,9.90
2022-08-31T16:27:48.386Z,7.72
2022-08-31T16:30:15.881Z,7.28
2022-08-31T16:32:42.524Z,9.10
2022-08-31T16:35:09.544Z,10.85
2022-08-31T16:37:36.305Z,8.75
2022-08-31T16:40:04.652Z,8.73
2022-08-31T16:42:31.337Z,8.25
2022-08-31T16:45:01.889Z,8.95
2022-08-31T16:49:56.782Z,10.52
2022-08-31T16:52:27.185Z,9.38
2022-08-31T16:54:57.172Z,7.60
2022-08-31T16:57:27.140Z,9.20
2022-08-31T16:59:55.758Z,12.35
2022-08-31T17:02:24.402Z,9.15
2022-08-31T17:04:53.249Z,8.63
2022-08-31T17:07:21.922Z,7.15
2022-08-31T17:09:49.983Z,9.05
2022-08-31T17:12:21.375Z,12.38
2022-08-31T17:14:52.567Z,13.35
2022-08-31T17:19:52.963Z,8.30
2022-08-31T17:22:27.025Z,7.68
2022-08-31T17:25:00.050Z,8.13
2022-08-31T17:27:27.709Z,8.77
2022-08-31T17:30:00.816Z,9.45
2022-08-31T17:32:28.902Z,7.57
2022-08-31T17:34:56.456Z,6.82
2022-08-31T17:37:36.571Z,7.45
2022-08-31T17:40:07.901Z,8.38
2022-08-31T17:42:35.281Z,10.85
2022-08-31T17:45:05.747Z,6.82
2022-08-31T17:47:33.085Z,9.18
2022-08-31T17:50:00.149Z,11.02
2022-08-31T17:52:27.263Z,8.95
2022-08-31T17:54:53.951Z,9.00
2022-08-31T17:57:24.822Z,10.27
2022-08-31T17:59:52.750Z,8.05
2022-08-31T18:02:27.628Z,11.93
2022-08-31T18:04:54.513Z,9.20
2022-08-31T18:07:21.637Z,10.88
2022-08-31T18:09:48.329Z,9.57
2022-08-31T18:12:16.350Z,11.40
2022-08-31T18:14:43.977Z,11.38
2022-08-31T18:17:13.825Z,13.98
2022-08-31T18:19:40.472Z,10.93
2022-08-31T18:22:07.993Z,11.27
2022-08-31T18:24:36.625Z,11.63
2022-08-31T18:27:06.949Z,8.98
2022-08-31T18:29:38.291Z,11.07
2022-08-31T18:32:06.886Z,10.30
2022-08-31T18:34:36.721Z,10.77
2022-08-31T18:37:07.846Z,11.32
2022-08-31T18:39:53.301Z,9.90
2022-08-31T18:42:50.191Z,9.70
2022-08-31T18:45:18.949Z,8.45
2022-08-31T18:48:13.649Z,7.75
2022-08-31T18:50:37.531Z,10.05
2022-08-31T18:53:11.148Z,9.00
2022-08-31T18:55:43.342Z,6.60
2022-08-31T18:58:10.032Z,6.47
2022-08-31T19:00:37.506Z,4.65
2022-08-31T19:03:04.501Z,6.45
2022-08-31T19:05:34.535Z,5.50
2022-08-31T19:08:01.432Z,7.05
2022-08-31T19:10:28.114Z,6.65
2022-08-31T19:12:55.779Z,5.60
2022-08-31T19:15:25.437Z,7.43
2022-08-31T19:18:01.796Z,5.45
2022-08-31T19:20:29.294Z,4.63
2022-08-31T19:22:56.249Z,6.13
2022-08-31T19:25:23.442Z,7.25
2022-08-31T19:27:51.939Z,7.05
2022-08-31T19:30:24.500Z,6.35
2022-08-31T19:32:54.159Z,7.30
2022-08-31T19:35:21.060Z,6.65
2022-08-31T19:37:51.820Z,7.97
2022-08-31T19:40:19.529Z,7.70
2022-08-31T19:45:44.892Z,7.68
2022-08-31T19:48:12.375Z,7.00
2022-08-31T19:50:41.891Z,8.27
2022-08-31T19:53:12.497Z,7.13
2022-08-31T19:55:51.297Z,9.83
2022-08-31T19:58:22.461Z,8.48
2022-08-31T20:00:49.867Z,8.02
2022-08-31T20:03:19.141Z,12.73
2022-08-31T20:05:46.580Z,7.25
2022-08-31T20:08:13.369Z,8.07
2022-08-31T20:10:44.796Z,7.90
2022-08-31T20:13:12.776Z,7.63
2022-08-31T20:15:44.762Z,7.03
2022-08-31T20:18:12.664Z,8.73
2022-08-31T20:20:48.423Z,7.35
2022-08-31T20:23:16.767Z,7.70
2022-08-31T20:25:49.998Z,7.93
2022-08-31T20:28:19.086Z,7.20
2022-08-31T20:30:45.732Z,8.95
2022-08-31T20:33:12.449Z,9.07
2022-08-31T20:35:47.448Z,7.93
2022-08-31T20:38:16.723Z,7.20
2022-08-31T20:40:45.417Z,8.07
2022-08-31T20:43:13.280Z,6.95
2022-08-31T20:45:41.491Z,6.68
2022-08-31T20:48:27.704Z,9.23
2022-08-31T20:50:55.897Z,8.45
2022-08-31T20:53:38.919Z,7.63
2022-08-31T20:56:17.493Z,7.65
2022-08-31T20:58:45.848Z,7.53
2022-08-31T21:01:18.276Z,8.73
2022-08-31T21:03:44.843Z,10.68
2022-08-31T21:06:12.545Z,9.90
2022-08-31T21:08:46.118Z,7.57
2022-08-31T21:11:15.239Z,7.55
2022-08-31T21:13:46.467Z,5.78
2022-08-31T21:16:14.565Z,7.05
2022-08-31T21:18:41.306Z,7.65
2022-08-31T21:21:12.612Z,8.82
2022-08-31T21:26:08.711Z,8.07
2022-08-31T21:28:39.466Z,9.80
2022-08-31T21:31:16.559Z,7.13
2022-08-31T21:34:01.805Z,9.23
2022-08-31T21:36:33.048Z,8.40
2022-08-31T21:39:00.619Z,8.00
2022-08-31T21:41:28.999Z,8.82
2022-08-31T21:44:00.455Z,8.48
2022-08-31T21:48:56.953Z,11.50
2022-08-31T21:51:29.896Z,6.82
2022-08-31T21:53:59.824Z,6.07
2022-08-31T21:56:29.126Z,6.95
2022-08-31T21:58:57.721Z,9.95
2022-08-31T22:01:26.863Z,9.15
2022-08-31T22:03:58.666Z,9.18
2022-08-31T22:06:29.084Z,7.43
2022-08-31T22:09:00.073Z,9.35
2022-08-31T22:11:30.178Z,8.85
2022-08-31T22:13:59.350Z,10.18
2022-08-31T22:16:27.682Z,12.27
2022-08-31T22:19:01.620Z,7.55
2022-08-31T22:21:34.114Z,11.32
2022-08-31T22:24:05.372Z,9.98
2022-08-31T22:26:35.569Z,12.57
2022-08-31T22:29:02.638Z,10.68
2022-08-31T22:31:29.424Z,9.55
2022-08-31T22:33:56.068Z,9.25
2022-08-31T22:36:32.325Z,12.25
2022-08-31T22:39:05.599Z,9.85
2022-08-31T22:41:33.553Z,11.05
2022-08-31T22:44:00.712Z,10.43
2022-08-31T22:46:28.399Z,11.13
2022-08-31T22:48:55.587Z,13.60
2022-08-31T22:51:22.590Z,12.13
2022-08-31T22:53:51.630Z,11.00
2022-08-31T22:56:25.574Z,13.15
2022-08-31T22:58:55.038Z,14.10
2022-08-31T23:01:33.910Z,14.00
2022-08-31T23:04:06.506Z,15.70
2022-08-31T23:06:35.290Z,15.95
2022-08-31T23:09:03.055Z,13.52
2022-08-31T23:11:30.073Z,14.77
2022-08-31T23:13:58.810Z,13.98
2022-08-31T23:16:28.962Z,13.32
2022-08-31T23:18:59.042Z,15.13
2022-08-31T23:21:27.669Z,14.13
2022-08-31T23:23:55.895Z,12.52
2022-08-31T23:26:27.567Z,14.40
2022-08-31T23:28:59.285Z,12.25
2022-08-31T23:31:27.882Z,15.77
2022-08-31T23:33:54.797Z,14.88
2022-08-31T23:36:26.386Z,15.05
2022-08-31T23:38:55.187Z,16.20
2022-08-31T23:41:25.867Z,14.02
2022-08-31T23:43:53.546Z,12.23
2022-08-31T23:46:22.118Z,15.07
2022-08-31T23:48:49.763Z,13.52
2022-08-31T23:51:19.510Z,12.75
2022-08-31T23:53:54.026Z,13.35
2022-08-31T23:56:32.105Z,12.40
2022-08-31T23:59:02.990Z,16.30
